Time;durP1;ratioP1;P1;durP2;ratioP2;P2;SDS_P1;SDS_P2;PMS_P1;PMS_P2;Temp;Humidity;BMP_temperature;BMP_pressure;BME280_temperature;BME280_humidity;BME280_pressure;Samples;Min_cycle;Max_cycle;Signal;HPM_P1;HPM_P2
2023/05/27 00:02:01;;;;;;;18.27;5.67;;;12.50;93.80;;;12.07;64.96;102312.91;5017810;28;20309;-73
2023/05/27 00:04:35;;;;;;;17.13;5.70;;;12.40;94.20;;;11.93;65.23;102310.56;5018477;28;20195;-73
2023/05/27 00:07:09;;;;;;;18.07;5.93;;;12.30;94.00;;;11.92;64.63;102302.63;5017940;28;20211;-73
2023/05/27 00:09:42;;;;;;;13.27;5.23;;;12.20;94.50;;;11.91;65.11;102315.22;5018045;28;20704;-73
2023/05/27 00:12:16;;;;;;;11.80;5.60;;;12.20;94.80;;;11.79;66.04;102312.72;5017818;28;20231;-73
2023/05/27 00:14:49;;;;;;;16.33;5.70;;;12.10;94.60;;;11.67;66.61;102315.44;5018015;28;20214;-73
2023/05/27 00:17:22;;;;;;;20.40;5.60;;;11.90;95.10;;;11.78;66.27;102317.22;5017727;28;20275;-73
2023/05/27 00:19:56;;;;;;;13.53;6.13;;;12.10;95.10;;;11.72;66.24;102312.38;5017844;28;20204;-73
2023/05/27 00:22:30;;;;;;;19.70;5.70;;;12.10;95.10;;;11.67;66.58;102315.44;5017923;28;20242;-73
2023/05/27 00:25:03;;;;;;;21.00;5.90;;;12.00;95.20;;;11.63;66.44;102314.00;5018523;28;20230;-74
2023/05/27 00:27:37;;;;;;;20.23;6.10;;;11.90;95.40;;;11.69;66.58;102312.59;5017780;28;20318;-73
2023/05/27 00:30:13;;;;;;;15.90;5.70;;;12.10;95.40;;;11.62;65.97;102306.91;5017609;28;20282;-73
2023/05/27 00:32:46;;;;;;;21.13;6.17;;;12.00;95.30;;;11.58;66.56;102305.47;5017656;28;20265;-73
2023/05/27 00:35:20;;;;;;;13.67;5.63;;;11.90;95.50;;;11.60;66.84;102314.25;5017491;28;20198;-73
2023/05/27 00:37:54;;;;;;;16.07;5.83;;;11.90;95.60;;;11.59;66.31;102303.63;5016897;28;20712;-73
2023/05/27 00:40:30;;;;;;;14.33;5.67;;;12.00;95.40;;;11.48;67.40;102307.22;5017333;28;20219;-73
2023/05/27 00:43:03;;;;;;;18.17;6.57;;;11.80;95.70;;;11.49;66.04;102306.25;5017107;28;20283;-73
2023/05/27 00:45:38;;;;;;;16.47;6.47;;;11.90;96.00;;;11.37;67.44;102307.25;5017644;28;20283;-73
2023/05/27 00:48:12;;;;;;;18.60;6.13;;;11.80;95.60;;;11.28;67.50;102302.66;5017391;28;20622;-73
2023/05/27 00:50:45;;;;;;;14.90;5.93;;;11.60;96.10;;;11.23;67.79;102296.84;5017050;28;20594;-73
2023/05/27 00:53:21;;;;;;;12.83;4.80;;;11.60;96.30;;;11.25;67.13;102296.69;5017164;28;20274;-73
2023/05/27 00:55:58;;;;;;;19.57;5.50;;;11.60;96.30;;;11.20;66.93;102300.59;5017501;28;20226;-73
2023/05/27 00:58:32;;;;;;;16.47;5.83;;;11.60;96.10;;;11.06;68.15;102303.56;5017548;28;20223;-73
2023/05/27 01:01:07;;;;;;;17.87;5.77;;;11.40;96.60;;;11.08;67.67;102308.81;5017453;28;20227;-73
2023/05/27 01:03:41;;;;;;;15.20;6.00;;;11.50;96.50;;;11.11;67.59;102308.56;5017290;28;20249;-73
2023/05/27 01:06:30;;;;;;;13.87;5.17;;;11.50;96.40;;;11.07;67.76;102297.22;5016984;28;20215;-73
2023/05/27 01:09:15;;;;;;;12.07;5.10;;;11.50;96.40;;;11.10;67.67;102305.03;5017282;28;20216;-73
2023/05/27 01:11:59;;;;;;;16.80;5.23;;;11.40;96.40;;;10.85;68.83;102305.34;5017191;28;20251;-73
2023/05/27 01:14:36;;;;;;;15.17;5.70;;;11.20;96.50;;;10.92;68.60;102305.69;5016500;28;20282;-74
2023/05/27 01:17:12;;;;;;;15.47;5.97;;;11.30;96.90;;;10.87;68.18;102303.38;5017131;28;20226;-74
2023/05/27 01:19:50;;;;;;;14.93;5.80;;;11.20;96.90;;;10.88;67.50;102314.94;5016974;28;20230;-73
2023/05/27 01:22:27;;;;;;;13.80;5.03;;;11.30;96.40;;;10.84;67.75;102306.31;5016753;28;20227;-73
2023/05/27 01:25:01;;;;;;;15.70;5.13;;;11.20;96.50;;;10.89;66.88;102306.75;5017114;28;20191;-73
2023/05/27 01:27:34;;;;;;;17.30;5.23;;;11.30;96.40;;;10.85;66.88;102308.00;5017131;28;20212;-73
2023/05/27 01:30:09;;;;;;;11.03;5.63;;;11.30;96.20;;;10.79;67.34;102303.13;5015998;28;20671;-73
2023/05/27 01:32:52;;;;;;;14.03;5.50;;;11.20;96.40;;;10.73;67.25;102300.09;5016989;28;20237;-73
2023/05/27 01:35:39;;;;;;;16.00;5.77;;;11.20;96.30;;;10.45;68.89;102307.66;5017494;28;20195;-73
2023/05/27 01:38:17;;;;;;;16.10;6.07;;;10.80;96.80;;;10.38;69.07;102306.44;5016963;28;20187;-73
2023/05/27 01:40:54;;;;;;;15.57;6.00;;;10.70;97.00;;;10.45;68.42;102296.94;5017436;28;20278;-72
2023/05/27 01:43:28;;;;;;;14.40;6.30;;;10.80;97.00;;;10.34;68.88;102301.47;5019359;28;20192;-72
2023/05/27 01:46:02;;;;;;;17.87;5.93;;;10.70;97.50;;;10.38;68.44;102298.41;5018955;28;20659;-73
2023/05/27 01:48:35;;;;;;;15.93;6.13;;;10.80;97.30;;;10.36;69.03;102294.16;5019112;28;20243;-73
2023/05/27 01:51:08;;;;;;;12.73;5.33;;;10.80;97.60;;;10.38;68.97;102290.38;5018451;28;20251;-72
2023/05/27 01:53:42;;;;;;;14.20;5.30;;;10.80;97.20;;;10.37;68.36;102294.03;5018586;28;20200;-72
2023/05/27 01:56:15;;;;;;;14.07;5.67;;;10.80;97.20;;;10.34;68.42;102299.63;5016866;28;20187;-73
2023/05/27 01:58:49;;;;;;;19.27;6.00;;;10.80;97.00;;;10.27;69.03;102292.22;5016443;28;20188;-73
2023/05/27 02:01:23;;;;;;;15.90;6.27;;;10.70;97.20;;;10.24;68.71;102293.28;5016712;28;20228;-73
2023/05/27 02:03:56;;;;;;;14.87;5.70;;;10.70;97.40;;;10.17;68.92;102292.09;5017214;28;20196;-73
2023/05/27 02:06:32;;;;;;;18.83;6.47;;;10.60;97.90;;;10.15;69.19;102283.31;5017097;28;20654;-74
2023/05/27 02:09:05;;;;;;;13.00;5.47;;;10.60;97.40;;;10.09;68.98;102289.09;5017532;28;20211;-74
2023/05/27 02:11:39;;;;;;;15.50;6.10;;;10.60;97.30;;;10.10;68.63;102290.81;5016563;28;20671;-73
2023/05/27 02:14:13;;;;;;;13.33;5.37;;;10.50;98.00;;;10.07;68.99;102286.53;5017268;28;20191;-73
2023/05/27 02:16:47;;;;;;;11.70;5.37;;;10.50;97.50;;;9.94;69.19;102284.94;5016836;28;20700;-73
2023/05/27 02:19:21;;;;;;;17.57;5.80;;;10.30;97.50;;;9.87;68.82;102284.56;5016619;28;20198;-73
2023/05/27 02:21:55;;;;;;;17.73;6.30;;;10.30;97.70;;;9.64;70.16;102283.66;5017759;28;20318;-73
2023/05/27 02:24:28;;;;;;;14.90;5.60;;;10.00;97.90;;;9.68;69.76;102279.78;5017898;28;20219;-73
2023/05/27 02:27:02;;;;;;;13.23;5.23;;;10.10;98.10;;;9.56;70.37;102278.03;5017710;28;20188;-73
2023/05/27 02:29:35;;;;;;;17.07;7.30;;;9.90;98.40;;;9.55;70.36;102283.50;5017665;28;20310;-73
2023/05/27 02:32:08;;;;;;;12.77;5.70;;;9.90;98.10;;;9.54;70.01;102285.31;5017732;28;20227;-73
2023/05/27 02:34:42;;;;;;;14.77;5.93;;;9.90;98.20;;;9.43;70.28;102284.41;5017070;28;20647;-73
2023/05/27 02:37:15;;;;;;;12.13;5.90;;;9.80;98.60;;;9.33;71.02;102288.75;5017121;28;20676;-73
2023/05/27 02:39:48;;;;;;;13.77;5.97;;;9.70;98.60;;;9.33;71.52;102283.41;5017720;28;20226;-73
2023/05/27 02:42:22;;;;;;;14.40;5.57;;;9.70;99.00;;;9.29;70.63;102288.13;5017814;28;20232;-73
2023/05/27 02:44:55;;;;;;;15.77;5.70;;;9.70;98.70;;;9.24;71.87;102287.63;5017969;28;20195;-73
2023/05/27 02:47:29;;;;;;;16.83;5.67;;;9.60;98.90;;;9.24;71.53;102284.09;5018124;28;20191;-73
2023/05/27 02:50:03;;;;;;;16.27;6.03;;;9.60;99.10;;;9.14;71.27;102289.28;5017643;28;20208;-73
2023/05/27 02:52:36;;;;;;;15.43;6.60;;;9.60;98.90;;;9.11;72.10;102293.00;5018045;28;20696;-73
2023/05/27 02:55:11;;;;;;;12.17;5.33;;;9.50;99.40;;;9.24;71.03;102290.31;5018124;28;20214;-73
2023/05/27 02:57:45;;;;;;;15.13;6.40;;;9.70;99.10;;;9.19;70.63;102295.13;5018576;28;20195;-73
2023/05/27 03:00:21;;;;;;;20.83;6.17;;;9.60;98.90;;;9.09;71.54;102292.28;5018205;28;20613;-73
2023/05/27 03:02:55;;;;;;;12.97;5.30;;;9.50;99.10;;;9.22;71.17;102292.22;5018388;28;20235;-73
2023/05/27 03:05:28;;;;;;;15.07;5.80;;;9.60;99.20;;;9.26;71.01;102298.19;5018119;28;20191;-73
2023/05/27 03:08:02;;;;;;;14.67;6.23;;;9.70;98.90;;;9.25;71.31;102293.81;5018351;28;20227;-74
2023/05/27 03:10:35;;;;;;;16.43;6.07;;;9.70;99.00;;;9.37;71.18;102301.78;5017720;28;20191;-74
2023/05/27 03:13:09;;;;;;;15.50;5.97;;;9.90;98.80;;;9.37;71.59;102300.94;5018248;28;20208;-74
2023/05/27 03:15:42;;;;;;;14.50;6.20;;;9.90;98.90;;;9.35;71.62;102302.88;5017856;28;20279;-74
2023/05/27 03:18:16;;;;;;;16.67;6.00;;;9.80;98.80;;;9.29;70.96;102300.63;5017637;28;20632;-74
2023/05/27 03:20:50;;;;;;;14.27;6.20;;;9.80;98.60;;;9.29;71.87;102309.50;5018001;28;20196;-74
2023/05/27 03:23:23;;;;;;;17.70;5.83;;;9.80;99.20;;;9.36;71.04;102304.56;5016215;28;20191;-74
2023/05/27 03:25:56;;;;;;;16.53;6.83;;;9.80;99.00;;;9.29;71.11;102300.63;5017287;28;20699;-73
2023/05/27 03:28:30;;;;;;;15.00;6.03;;;9.80;98.90;;;9.18;72.34;102301.41;5017304;28;20298;-73
2023/05/27 03:31:04;;;;;;;19.43;6.10;;;9.60;99.40;;;9.23;72.59;102301.94;5017131;28;20231;-74
2023/05/27 03:33:38;;;;;;;15.13;6.10;;;9.70;99.60;;;9.18;72.84;102294.25;5016901;28;20683;-73
2023/05/27 03:36:12;;;;;;;19.10;6.23;;;9.60;99.60;;;9.18;71.54;102295.25;5016955;28;20195;-73
2023/05/27 03:38:46;;;;;;;16.03;6.07;;;9.70;99.20;;;9.18;72.43;102284.56;5017356;28;20274;-73
2023/05/27 03:41:19;;;;;;;14.33;5.33;;;9.60;99.60;;;9.10;72.12;102288.66;5017521;28;20235;-74
2023/05/27 03:43:53;;;;;;;16.77;6.43;;;9.60;99.30;;;8.99;72.70;102291.25;5017536;28;20196;-74
2023/05/27 03:46:27;;;;;;;12.00;5.97;;;9.40;99.70;;;9.03;72.66;102289.22;5017530;28;20203;-74
2023/05/27 03:49:00;;;;;;;12.53;6.03;;;9.50;99.90;;;9.12;71.93;102288.53;5016246;28;20672;-73
2023/05/27 03:51:35;;;;;;;12.17;5.47;;;9.60;99.50;;;9.06;72.46;102297.84;5016120;28;20786;-72
2023/05/27 03:54:08;;;;;;;12.53;6.23;;;9.60;99.40;;;8.96;72.67;102286.16;5019752;28;20233;-72
2023/05/27 03:56:41;;;;;;;15.37;6.03;;;9.50;99.60;;;9.01;72.80;102277.78;5019425;28;20191;-72
2023/05/27 03:59:15;;;;;;;11.37;6.20;;;9.50;99.90;;;9.10;73.01;102287.81;5020325;28;20278;-72
2023/05/27 04:01:49;;;;;;;15.73;6.13;;;9.60;99.90;;;9.12;73.03;102278.69;5020190;28;20819;-72
2023/05/27 04:04:22;;;;;;;12.97;6.13;;;9.70;99.90;;;8.98;73.90;102281.53;5020362;28;20217;-72
2023/05/27 04:06:56;;;;;;;15.97;6.47;;;9.50;99.90;;;8.92;74.22;102283.78;5020923;28;20192;-73
2023/05/27 04:09:30;;;;;;;12.77;6.10;;;9.40;99.90;;;8.98;73.78;102288.69;5020836;28;20559;-73
2023/05/27 04:12:03;;;;;;;14.50;6.70;;;9.50;99.90;;;8.99;74.55;102293.94;5020584;28;20270;-73
2023/05/27 04:14:36;;;;;;;16.17;6.70;;;9.50;99.90;;;8.98;74.88;102286.00;5021261;28;20226;-74
2023/05/27 04:17:10;;;;;;;18.50;7.00;;;9.50;99.90;;;8.90;75.84;102285.75;5020218;28;20649;-74
2023/05/27 04:19:43;;;;;;;15.73;6.23;;;9.40;99.90;;;8.93;75.00;102281.03;5020575;28;20192;-73
2023/05/27 04:22:16;;;;;;;14.90;6.47;;;9.40;99.90;;;8.95;75.40;102286.25;5020266;28;20783;-73
2023/05/27 04:24:50;;;;;;;14.27;6.57;;;9.40;99.90;;;8.81;76.82;102270.38;5020650;28;20218;-73
2023/05/27 04:27:24;;;;;;;15.47;6.10;;;9.40;99.90;;;8.88;76.25;102271.63;5020310;28;20208;-73
2023/05/27 04:29:58;;;;;;;20.33;7.40;;;9.40;99.90;;;8.90;76.18;102267.03;5019328;28;20261;-74
2023/05/27 04:32:32;;;;;;;20.70;7.30;;;9.40;99.90;;;8.92;76.95;102267.78;5019676;28;20295;-73
2023/05/27 04:35:08;;;;;;;17.27;6.90;;;9.40;99.90;;;8.88;77.29;102266.28;5021512;28;20195;-73
2023/05/27 04:37:44;;;;;;;17.13;7.83;;;9.40;99.90;;;8.88;77.34;102268.94;5020467;28;20203;-72
2023/05/27 04:40:19;;;;;;;21.53;7.13;;;9.40;99.90;;;8.95;77.03;102268.41;5020283;28;20195;-73
2023/05/27 04:42:52;;;;;;;16.33;7.20;;;9.50;99.90;;;8.96;77.54;102266.59;5019412;28;20784;-73
2023/05/27 04:45:26;;;;;;;20.53;7.13;;;9.50;99.90;;;8.94;78.00;102266.69;5019114;28;20231;-73
2023/05/27 04:48:00;;;;;;;24.43;7.67;;;9.50;99.90;;;8.96;78.01;102282.63;5018641;28;20595;-73
2023/05/27 04:50:34;;;;;;;13.93;7.10;;;9.50;99.90;;;8.98;78.64;102272.66;5017967;28;20744;-73
2023/05/27 04:53:09;;;;;;;16.10;6.83;;;9.50;99.90;;;8.96;78.52;102274.59;5017366;28;20636;-73
2023/05/27 04:55:42;;;;;;;17.30;7.73;;;9.50;99.90;;;9.00;78.54;102276.09;5017741;28;20210;-73
2023/05/27 04:58:15;;;;;;;15.10;6.50;;;9.60;99.90;;;9.03;78.41;102270.50;5017988;28;20188;-73
2023/05/27 05:00:53;;;;;;;18.17;7.47;;;9.60;99.90;;;9.00;78.85;102292.13;5017333;28;20218;-73
2023/05/27 05:03:36;;;;;;;17.20;6.93;;;9.50;99.90;;;9.04;78.40;102285.59;5016156;28;20192;-74
2023/05/27 05:06:11;;;;;;;18.83;7.43;;;9.60;99.90;;;8.99;79.14;102298.41;5017375;28;20195;-74
2023/05/27 05:08:45;;;;;;;19.00;7.70;;;9.50;99.90;;;9.04;78.99;102282.91;5017501;28;20191;-74
2023/05/27 05:11:18;;;;;;;18.83;7.33;;;9.60;99.90;;;9.06;78.70;102287.16;5018488;28;20266;-74
2023/05/27 05:13:51;;;;;;;17.63;7.73;;;9.60;99.90;;;9.09;79.22;102299.44;5018290;28;20226;-74
2023/05/27 05:16:25;;;;;;;15.27;7.50;;;9.60;99.90;;;9.12;79.30;102304.56;5017599;28;20223;-74
2023/05/27 05:18:58;;;;;;;24.73;8.57;;;9.70;99.90;;;8.98;80.97;102292.22;5018521;28;20195;-74
2023/05/27 05:21:32;;;;;;;20.17;7.97;;;9.60;99.90;;;9.03;80.49;102291.88;5018833;28;20239;-74
2023/05/27 05:24:05;;;;;;;24.43;8.23;;;9.60;99.90;;;8.97;80.34;102295.84;5018742;28;20195;-74
2023/05/27 05:26:39;;;;;;;18.47;7.90;;;9.50;99.90;;;8.97;81.08;102303.03;5018399;28;20639;-74
2023/05/27 05:29:12;;;;;;;19.37;7.60;;;9.60;99.90;;;9.01;80.55;102304.47;5018193;28;20371;-74
2023/05/27 05:31:45;;;;;;;19.57;8.13;;;9.60;99.90;;;8.92;81.39;102297.16;5017997;28;20314;-74
2023/05/27 05:34:19;;;;;;;19.30;7.80;;;9.50;99.90;;;8.99;81.69;102301.94;5018278;28;20242;-74
2023/05/27 05:36:53;;;;;;;20.50;8.23;;;9.60;99.90;;;8.90;82.36;102301.75;5018436;28;20246;-74
2023/05/27 05:39:26;;;;;;;17.40;7.90;;;9.50;99.90;;;8.97;82.15;102292.34;5018194;28;20196;-74
2023/05/27 05:42:00;;;;;;;22.80;8.33;;;9.60;99.90;;;9.03;82.14;102302.56;5017947;28;20282;-74
2023/05/27 05:44:34;;;;;;;22.90;8.70;;;9.60;99.90;;;9.01;82.78;102299.13;5018178;28;20195;-74
2023/05/27 05:47:09;;;;;;;23.63;8.37;;;9.70;99.90;;;8.96;82.41;102290.63;5018003;28;20231;-74
2023/05/27 05:49:42;;;;;;;21.73;8.40;;;9.60;99.90;;;9.05;82.72;102292.63;5018266;28;20234;-74
2023/05/27 05:52:16;;;;;;;21.77;8.50;;;9.70;99.90;;;9.02;82.60;102300.84;5017263;28;20240;-74
2023/05/27 05:54:49;;;;;;;17.07;7.37;;;9.70;99.90;;;9.12;82.80;102293.88;5017415;28;20192;-74
2023/05/27 05:57:23;;;;;;;24.73;8.57;;;9.80;99.90;;;9.23;82.80;102293.94;5017188;28;20198;-74
2023/05/27 05:59:56;;;;;;;24.03;8.10;;;9.90;99.90;;;9.33;82.51;102288.75;5017007;28;20295;-74
2023/05/27 06:02:29;;;;;;;22.27;8.30;;;10.00;99.90;;;9.42;81.97;102288.91;5016023;28;20323;-74
2023/05/27 06:05:03;;;;;;;19.53;7.83;;;10.10;99.90;;;9.50;81.86;102286.53;5015952;28;20196;-74
2023/05/27 06:07:37;;;;;;;18.10;7.03;;;10.20;99.90;;;9.57;80.97;102289.59;5016214;28;20253;-74
2023/05/27 06:10:13;;;;;;;19.77;8.33;;;10.30;99.90;;;9.57;81.71;102285.09;5016529;28;20207;-74
2023/05/27 06:12:46;;;;;;;23.80;9.00;;;10.20;99.90;;;9.64;81.74;102286.34;5016073;28;20223;-74
2023/05/27 06:15:19;;;;;;;15.03;7.50;;;10.30;99.90;;;9.69;81.92;102286.00;5015106;28;20650;-74
2023/05/27 06:17:53;;;;;;;22.97;7.50;;;10.40;99.90;;;9.74;81.46;102288.28;5015448;28;20196;-74
2023/05/27 06:20:27;;;;;;;18.57;8.00;;;10.40;99.90;;;9.81;82.15;102292.22;5015131;28;20226;-74
2023/05/27 06:23:01;;;;;;;11.87;6.57;;;10.50;99.90;;;9.85;81.53;102280.31;5014804;28;20196;-74
2023/05/27 06:25:34;;;;;;;17.83;7.43;;;10.50;99.90;;;9.93;81.23;102283.25;5015057;28;20282;-74
2023/05/27 06:28:07;;;;;;;22.03;7.43;;;10.60;99.90;;;10.04;81.15;102275.22;5014745;28;20195;-74
2023/05/27 06:30:42;;;;;;;18.83;7.17;;;10.70;99.90;;;10.09;80.77;102278.41;5014027;28;20207;-74
2023/05/27 06:33:15;;;;;;;17.17;6.73;;;10.80;99.90;;;10.15;80.70;102284.16;5014140;28;20289;-74
2023/05/27 06:35:49;;;;;;;21.50;8.10;;;10.80;99.90;;;10.23;80.94;102274.69;5014234;28;20220;-74
2023/05/27 06:38:23;;;;;;;18.17;7.20;;;10.90;99.90;;;10.29;80.52;102285.75;5013830;28;20637;-74
2023/05/27 06:40:57;;;;;;;19.97;8.13;;;11.00;99.90;;;10.42;80.82;102285.63;5014253;28;20253;-74
2023/05/27 06:43:30;;;;;;;19.10;7.90;;;11.10;99.90;;;10.46;79.73;102285.28;5014100;28;20200;-74
2023/05/27 06:46:03;;;;;;;22.07;7.60;;;11.20;99.90;;;10.52;79.98;102281.25;5014009;28;20283;-74
2023/05/27 06:48:38;;;;;;;15.70;6.67;;;11.20;99.90;;;10.59;78.07;102277.09;5014129;28;20214;-74
2023/05/27 06:51:13;;;;;;;17.50;7.70;;;11.30;99.90;;;10.65;78.19;102274.78;5013934;28;20318;-74
2023/05/27 06:53:46;;;;;;;22.77;8.47;;;11.40;99.90;;;10.77;77.99;102280.13;5013962;28;20249;-74
2023/05/27 06:56:19;;;;;;;20.60;7.50;;;11.50;99.90;;;10.80;78.40;102279.88;5013978;28;20672;-74
2023/05/27 06:58:53;;;;;;;21.93;7.67;;;11.50;99.90;;;10.88;77.87;102277.44;5013899;28;20255;-74
2023/05/27 07:01:26;;;;;;;16.07;7.50;;;11.60;99.90;;;10.96;77.75;102275.00;5014085;28;20637;-74
2023/05/27 07:04:00;;;;;;;16.50;6.50;;;11.60;99.90;;;11.00;76.84;102287.13;5014032;28;20566;-74
2023/05/27 07:06:33;;;;;;;22.13;7.70;;;11.70;99.90;;;11.07;75.88;102273.13;5013871;28;20219;-74
2023/05/27 07:09:06;;;;;;;16.40;7.40;;;11.70;99.90;;;11.13;76.16;102279.78;5013977;28;20230;-74
2023/05/27 07:11:40;;;;;;;22.20;7.97;;;11.80;99.90;;;11.18;77.77;102275.75;5013364;28;20242;-75
2023/05/27 07:14:14;;;;;;;17.50;7.50;;;11.90;99.90;;;11.38;75.98;102281.28;5013648;28;20715;-74
2023/05/27 07:16:47;;;;;;;26.37;7.60;;;12.10;99.90;;;11.45;75.03;102282.47;5013700;28;20211;-74
2023/05/27 07:19:22;;;;;;;15.33;6.67;;;12.20;99.90;;;11.48;75.52;102276.84;5013504;28;20676;-74
2023/05/27 07:21:55;;;;;;;19.83;6.77;;;12.20;99.90;;;11.57;74.45;102274.28;5013662;28;20265;-74
2023/05/27 07:24:29;;;;;;;17.17;6.93;;;12.30;99.90;;;11.72;72.90;102269.44;5013680;28;20227;-74
2023/05/27 07:27:02;;;;;;;13.87;6.53;;;12.40;99.90;;;11.71;73.31;102264.25;5014051;28;20188;-74
2023/05/27 07:29:35;;;;;;;17.43;7.00;;;12.40;99.90;;;11.75;74.21;102268.38;5018689;28;20267;-73
2023/05/27 07:32:09;;;;;;;18.37;5.93;;;12.40;99.90;;;11.87;73.85;102267.31;5019044;28;20310;-72
2023/05/27 07:34:42;;;;;;;18.77;6.43;;;12.60;99.90;;;11.96;71.60;102261.97;5017655;28;20254;-74
2023/05/27 07:37:16;;;;;;;19.30;5.83;;;12.60;99.80;;;12.05;71.11;102261.22;5017243;28;20279;-74
2023/05/27 07:39:50;;;;;;;16.47;6.20;;;12.80;99.30;;;12.12;71.37;102264.22;5017024;28;20663;-74
2023/05/27 07:42:24;;;;;;;12.63;5.60;;;12.90;99.20;;;12.19;71.76;102257.31;5017069;28;20313;-73
2023/05/27 07:44:58;;;;;;;18.30;5.37;;;12.90;99.00;;;12.31;70.92;102248.19;5017223;28;20202;-73
2023/05/27 07:47:32;;;;;;;18.57;5.97;;;13.00;98.90;;;12.40;70.58;102250.03;5017197;28;20201;-74
2023/05/27 07:50:05;;;;;;;20.00;6.00;;;13.10;98.50;;;12.58;67.56;102248.41;5016955;28;20195;-74
2023/05/27 07:52:40;;;;;;;18.17;6.50;;;13.30;97.50;;;12.72;66.87;102255.25;5017071;28;20239;-74
2023/05/27 07:55:14;;;;;;;21.50;5.33;;;13.30;97.20;;;12.76;66.82;102240.56;5016942;28;20198;-74
2023/05/27 07:57:48;;;;;;;17.07;5.80;;;13.40;97.10;;;12.92;65.62;102238.16;5016958;28;20257;-74
2023/05/27 08:00:22;;;;;;;16.57;5.60;;;13.60;96.30;;;12.98;66.04;102244.84;5016843;28;20231;-74
2023/05/27 08:02:57;;;;;;;17.87;5.60;;;13.60;96.70;;;13.21;65.90;102240.94;5016429;28;20599;-73
2023/05/27 08:05:32;;;;;;;14.37;5.40;;;13.80;96.30;;;13.13;63.97;102228.19;5016746;28;20226;-73
2023/05/27 08:08:05;;;;;;;12.27;5.17;;;13.80;95.30;;;13.15;64.25;102230.75;5016569;28;20227;-72
2023/05/27 08:10:39;;;;;;;13.10;5.00;;;13.80;95.30;;;13.31;62.76;102225.66;5014499;28;20805;-74
2023/05/27 08:13:12;;;;;;;15.03;5.50;;;13.90;95.10;;;13.30;66.12;102220.38;5016533;28;20196;-74
2023/05/27 08:15:46;;;;;;;13.83;5.60;;;14.00;96.30;;;13.38;64.30;102210.63;5016525;28;20226;-74
2023/05/27 08:18:20;;;;;;;14.20;4.60;;;14.10;95.50;;;13.42;66.64;102219.28;5016501;28;20187;-74
2023/05/27 08:20:54;;;;;;;12.47;4.67;;;14.10;96.40;;;13.53;64.58;102216.41;5016389;28;20322;-74
2023/05/27 08:23:28;;;;;;;12.13;5.03;;;14.20;95.70;;;13.73;63.14;102207.34;5016477;28;20278;-74
2023/05/27 08:26:01;;;;;;;14.23;4.70;;;14.30;94.70;;;13.74;63.78;102203.63;5016379;28;20227;-75
2023/05/27 08:28:37;;;;;;;12.27;5.13;;;14.40;94.80;;;13.92;63.01;102203.72;5016312;28;20234;-64
2023/05/27 08:31:10;;;;;;;18.23;6.07;;;14.60;94.90;;;14.02;61.39;102193.75;5016181;28;20262;-74
2023/05/27 08:33:43;;;;;;;12.17;5.27;;;14.70;94.00;;;14.05;64.22;102193.47;5015863;28;20219;-74
2023/05/27 08:36:19;;;;;;;16.33;5.53;;;14.70;94.90;;;14.17;61.76;102195.84;5016310;28;20239;-74
2023/05/27 08:38:52;;;;;;;14.53;4.90;;;14.90;94.20;;;14.26;61.76;102190.53;5016009;28;20242;-74
2023/05/27 08:41:26;;;;;;;11.43;4.87;;;15.00;93.90;;;14.32;58.96;102184.56;5016076;28;20235;-74
2023/05/27 08:44:00;;;;;;;13.93;4.93;;;14.90;92.30;;;14.41;58.42;102184.56;5016253;28;20588;-74
2023/05/27 08:46:55;;;;;;;10.03;4.43;;;15.00;92.10;;;14.48;59.46;102193.75;5015979;28;20196;-74
2023/05/27 08:49:28;;;;;;;12.23;4.40;;;15.20;92.90;;;14.65;58.51;102187.53;5015929;28;20290;-74
2023/05/27 08:52:04;;;;;;;14.17;4.37;;;15.30;91.90;;;14.72;59.81;102193.16;5015840;28;20327;-74
2023/05/27 08:54:39;;;;;;;12.73;4.30;;;15.40;92.50;;;14.81;59.94;102186.00;5015538;28;20253;-74
2023/05/27 08:57:18;;;;;;;12.53;4.97;;;15.40;93.00;;;14.88;61.37;102181.69;5015462;28;20237;-74
2023/05/27 08:59:52;;;;;;;12.73;4.87;;;15.50;93.50;;;15.01;60.33;102187.53;5015677;28;20278;-74
2023/05/27 09:02:28;;;;;;;8.93;4.40;;;15.70;92.80;;;15.18;56.75;102178.59;5015548;28;20222;-74
2023/05/27 09:05:01;;;;;;;8.40;4.03;;;15.80;91.00;;;15.26;58.11;102184.06;5015994;28;20564;-75
2023/05/27 09:07:35;;;;;;;13.50;4.37;;;15.90;91.60;;;15.29;59.24;102174.81;5015456;28;20234;-75
2023/05/27 09:10:10;;;;;;;11.47;3.87;;;15.90;92.30;;;15.44;57.18;102167.88;5015184;28;20190;-75
2023/05/27 09:12:48;;;;;;;15.23;5.10;;;16.00;91.50;;;15.47;57.38;102171.09;5014929;28;20250;-74
2023/05/27 09:15:24;;;;;;;8.87;3.80;;;16.10;91.40;;;15.56;56.32;102167.47;5015425;28;20196;-74
2023/05/27 09:17:58;;;;;;;11.73;4.33;;;16.20;90.80;;;15.68;56.15;102171.59;5015379;28;20245;-74
2023/05/27 09:20:36;;;;;;;11.63;4.57;;;16.30;90.70;;;15.77;53.67;102174.34;5015191;28;20286;-74
2023/05/27 09:23:11;;;;;;;11.10;4.20;;;16.30;88.50;;;15.92;54.60;102167.38;5015277;28;20184;-75
2023/05/27 09:25:45;;;;;;;11.17;4.33;;;16.50;90.10;;;16.05;55.57;102174.03;5015342;28;20219;-75
2023/05/27 09:28:26;;;;;;;10.73;3.80;;;16.70;90.30;;;16.12;57.66;102171.53;5015020;28;20198;-75
2023/05/27 09:31:07;;;;;;;9.23;3.90;;;16.70;91.20;;;16.24;53.66;102172.91;5014777;28;20649;-75
2023/05/27 09:33:42;;;;;;;13.77;4.90;;;16.80;89.50;;;16.31;54.43;102168.56;5014794;28;20698;-75
2023/05/27 09:36:21;;;;;;;13.67;4.53;;;16.90;87.50;;;16.54;51.14;102169.63;5014789;28;20281;-75
2023/05/27 09:38:55;;;;;;;10.07;4.30;;;17.10;84.80;;;16.58;52.27;102154.81;5014901;28;20199;-75
2023/05/27 09:41:30;;;;;;;9.90;4.20;;;17.10;85.60;;;16.63;52.77;102157.88;5014901;28;20238;-75
2023/05/27 09:44:05;;;;;;;13.77;4.70;;;17.20;85.80;;;16.53;50.29;102162.56;5014989;28;20294;-72
2023/05/27 09:46:41;;;;;;;16.17;4.83;;;17.10;83.90;;;16.68;51.80;102155.50;5014529;28;20706;-72
2023/05/27 09:49:17;;;;;;;13.60;4.80;;;17.20;84.70;;;16.52;50.65;102155.44;5014618;28;20191;-72
2023/05/27 09:51:51;;;;;;;11.10;4.60;;;17.10;82.70;;;16.66;51.14;102154.84;5012778;28;20262;-72
2023/05/27 09:54:26;;;;;;;10.30;4.20;;;17.20;83.70;;;16.77;52.01;102142.03;5014252;28;20192;-72
2023/05/27 09:57:02;;;;;;;10.23;4.00;;;17.30;85.20;;;16.84;53.57;102137.63;5015146;28;20195;-72
2023/05/27 09:59:36;;;;;;;14.87;4.70;;;17.40;87.40;;;17.16;51.23;102143.03;5014539;28;20195;-72
2023/05/27 10:02:14;;;;;;;7.57;3.80;;;17.60;84.80;;;17.22;48.84;102139.69;5014937;28;20281;-73
2023/05/27 10:04:49;;;;;;;12.43;4.30;;;17.70;80.60;;;17.29;51.14;102138.00;5014482;28;20282;-73
2023/05/27 10:07:24;;;;;;;9.90;4.30;;;17.80;83.40;;;17.43;48.59;102131.84;5014444;28;20222;-73
2023/05/27 10:10:11;;;;;;;10.20;4.07;;;17.90;80.60;;;17.59;48.70;102136.44;5014372;28;20279;-72
2023/05/27 10:12:47;;;;;;;8.67;3.67;;;18.10;80.30;;;17.62;48.67;102139.66;5014187;28;20271;-72
2023/05/27 10:15:30;;;;;;;8.97;3.77;;;18.10;79.90;;;17.86;47.77;102144.19;5014307;28;20282;-72
2023/05/27 10:18:09;;;;;;;8.37;4.03;;;18.30;80.00;;;17.89;47.83;102127.56;5014243;28;20199;-72
2023/05/27 10:20:49;;;;;;;10.50;4.60;;;18.40;78.90;;;17.66;46.72;102121.22;5013896;28;20291;-72
2023/05/27 10:23:26;;;;;;;8.37;3.67;;;18.10;77.10;;;17.82;47.35;102117.59;5014190;28;20207;-73
2023/05/27 10:26:05;;;;;;;9.43;4.17;;;18.30;78.40;;;17.98;48.47;102117.56;5014109;28;20242;-73
2023/05/27 10:28:42;;;;;;;10.57;4.03;;;18.40;79.70;;;18.05;48.44;102113.94;5014195;28;20222;-73
2023/05/27 10:31:20;;;;;;;10.70;4.77;;;18.50;79.00;;;18.11;48.13;102117.84;5014041;28;20270;-73
2023/05/27 10:33:58;;;;;;;9.97;3.80;;;18.50;79.00;;;18.24;46.72;102116.25;5013744;28;20227;-73
2023/05/27 10:36:36;;;;;;;11.70;4.53;;;18.70;77.90;;;18.52;47.80;102108.50;5014089;28;20274;-73
2023/05/27 10:39:17;;;;;;;8.77;4.50;;;19.00;78.10;;;18.63;45.59;102102.63;5013994;28;20195;-73
2023/05/27 10:41:56;;;;;;;10.70;4.03;;;19.10;75.00;;;18.66;46.65;102102.28;5013866;28;20339;-73